Time;durP1;ratioP1;P1;durP2;ratioP2;P2;SDS_P1;SDS_P2;PMS_P1;PMS_P2;Temp;Humidity;BMP_temperature;BMP_pressure;BME280_temperature;BME280_humidity;BME280_pressure;Samples;Min_cycle;Max_cycle;Signal;HPM_P1;HPM_P2
2023/07/10 00:01:02;;;;;;;11.77;5.00;;;25.20;65.80;;;;;;4994508;28;20050;-71
2023/07/10 00:03:29;;;;;;;7.73;5.53;;;25.20;65.50;;;;;;4990762;28;20058;-72
2023/07/10 00:05:57;;;;;;;7.47;5.18;;;25.20;65.40;;;;;;4996595;28;20058;-70
2023/07/10 00:08:26;;;;;;;8.77;5.20;;;25.10;65.30;;;;;;4998078;28;20056;-69
2023/07/10 00:10:59;;;;;;;9.98;5.47;;;25.10;65.60;;;;;;4982370;28;20516;-69
2023/07/10 00:13:33;;;;;;;11.15;5.60;;;25.00;65.70;;;;;;4997988;28;20056;-69
2023/07/10 00:16:06;;;;;;;9.00;5.20;;;25.00;65.50;;;;;;4995712;28;20058;-65
2023/07/10 00:18:38;;;;;;;7.70;5.00;;;25.00;65.50;;;;;;4979081;28;20054;-66
2023/07/10 00:21:19;;;;;;;7.97;4.68;;;24.90;65.90;;;;;;4975023;28;20055;-73
2023/07/10 00:23:51;;;;;;;7.43;4.97;;;24.80;66.20;;;;;;4981682;28;20054;-72
2023/07/10 00:26:24;;;;;;;7.13;5.22;;;24.80;66.20;;;;;;4999808;28;20065;-70
2023/07/10 00:28:55;;;;;;;6.72;4.60;;;24.80;66.10;;;;;;4996416;28;20165;-70
2023/07/10 00:31:24;;;;;;;7.45;4.70;;;24.80;66.00;;;;;;4999007;28;20050;-64
2023/07/10 00:33:51;;;;;;;7.18;4.10;;;24.70;66.10;;;;;;4997775;28;20140;-65
2023/07/10 00:36:29;;;;;;;6.80;4.65;;;24.70;66.10;;;;;;4998448;28;20066;-73
2023/07/10 00:38:56;;;;;;;7.85;5.25;;;24.70;66.20;;;;;;4998777;28;20065;-73
2023/07/10 00:41:25;;;;;;;7.60;4.25;;;24.70;66.40;;;;;;4994047;28;20049;-66
2023/07/10 00:43:57;;;;;;;8.50;5.10;;;24.60;66.50;;;;;;4997324;28;20054;-66
2023/07/10 00:46:32;;;;;;;7.63;4.53;;;24.50;67.10;;;;;;4989595;28;20062;-73
2023/07/10 00:49:06;;;;;;;7.60;4.55;;;24.40;67.80;;;;;;4980780;28;20473;-74
2023/07/10 00:51:40;;;;;;;6.32;4.40;;;24.30;67.90;;;;;;4996178;28;20050;-73
2023/07/10 00:54:25;;;;;;;6.78;4.50;;;24.40;67.70;;;;;;4980980;28;20046;-74
2023/07/10 00:56:54;;;;;;;8.02;4.82;;;24.40;67.50;;;;;;4971288;28;20055;-66
2023/07/10 00:59:23;;;;;;;8.35;4.88;;;24.40;67.60;;;;;;4960257;28;20063;-66
2023/07/10 01:02:21;;;;;;;6.97;4.57;;;24.40;67.40;;;;;;4964117;28;20175;-66
2023/07/10 01:04:56;;;;;;;9.57;4.83;;;24.40;67.50;;;;;;4981252;28;20073;-66
2023/07/10 01:07:26;;;;;;;7.15;5.03;;;24.40;67.50;;;;;;4997194;28;20073;-71
2023/07/10 01:09:58;;;;;;;6.80;4.45;;;24.30;68.00;;;;;;4998284;28;20104;-71
2023/07/10 01:12:27;;;;;;;9.18;5.50;;;24.30;68.30;;;;;;4996576;28;20042;-67
2023/07/10 01:14:55;;;;;;;8.15;5.13;;;24.30;68.20;;;;;;4980102;28;20105;-67
2023/07/10 01:17:22;;;;;;;7.22;4.50;;;24.30;68.10;;;;;;4995029;28;20074;-71
2023/07/10 01:19:53;;;;;;;8.10;4.88;;;24.30;68.00;;;;;;4998164;28;20049;-70
2023/07/10 01:22:21;;;;;;;7.43;4.60;;;24.30;68.00;;;;;;4996433;28;20069;-67
2023/07/10 01:24:52;;;;;;;6.65;4.72;;;24.30;68.10;;;;;;4998512;28;20046;-67
2023/07/10 01:27:21;;;;;;;7.45;4.65;;;24.30;68.10;;;;;;4981024;28;20050;-69
2023/07/10 01:29:55;;;;;;;8.55;5.00;;;24.30;67.70;;;;;;4978746;28;20130;-70
2023/07/10 01:32:23;;;;;;;7.13;4.93;;;24.30;67.80;;;;;;4995085;28;20381;-61
2023/07/10 01:34:54;;;;;;;7.68;4.80;;;24.30;68.10;;;;;;4995850;28;20048;-61
2023/07/10 01:37:22;;;;;;;7.95;4.47;;;24.10;68.70;;;;;;4996183;28;20054;-69
2023/07/10 01:39:52;;;;;;;7.05;4.72;;;24.10;69.00;;;;;;4998080;28;20081;-70
2023/07/10 01:42:19;;;;;;;7.90;5.13;;;24.10;69.20;;;;;;4996052;28;20054;-65
2023/07/10 01:44:48;;;;;;;9.05;5.40;;;24.00;69.30;;;;;;4993927;28;20512;-65
2023/07/10 01:47:16;;;;;;;8.00;4.43;;;24.00;69.10;;;;;;4993281;28;20054;-64
2023/07/10 01:49:46;;;;;;;8.25;4.82;;;24.00;69.10;;;;;;4994931;28;20057;-65
2023/07/10 01:52:14;;;;;;;7.13;4.75;;;24.10;69.00;;;;;;4995672;28;20058;-68
2023/07/10 01:54:43;;;;;;;7.53;4.90;;;24.00;69.10;;;;;;4974805;28;20043;-70
2023/07/10 01:57:12;;;;;;;6.88;4.65;;;23.90;69.40;;;;;;4952485;28;20502;-69
2023/07/10 01:59:39;;;;;;;;;;;23.90;69.50;;;;;;4961204;28;20086;-70
2023/07/10 02:02:07;;;;;;;8.02;4.50;;;23.90;69.40;;;;;;4974133;28;19925;-63
2023/07/10 02:04:34;;;;;;;6.50;4.55;;;23.80;69.70;;;;;;4977172;28;20046;-65
2023/07/10 02:07:03;;;;;;;6.80;4.85;;;23.90;69.60;;;;;;4976413;28;20057;-73
2023/07/10 02:09:31;;;;;;;7.45;5.45;;;23.80;69.80;;;;;;4974800;28;20490;-75
2023/07/10 02:12:00;;;;;;;6.65;4.28;;;23.80;69.70;;;;;;4971624;28;20049;-74
2023/07/10 02:14:27;;;;;;;5.65;4.28;;;23.70;69.80;;;;;;4979255;28;20053;-73
2023/07/10 02:16:54;;;;;;;8.07;4.97;;;23.80;69.80;;;;;;4993393;28;20050;-65
2023/07/10 02:19:21;;;;;;;6.82;4.43;;;23.80;69.80;;;;;;4980042;28;20058;-63
2023/07/10 02:21:49;;;;;;;6.55;4.38;;;23.70;69.70;;;;;;4996285;28;20050;-64
2023/07/10 02:24:16;;;;;;;8.20;4.90;;;23.70;69.60;;;;;;4992309;28;20054;-65
2023/07/10 02:26:43;;;;;;;6.95;4.82;;;23.70;69.50;;;;;;4995694;28;20066;-74
2023/07/10 02:29:12;;;;;;;7.95;4.78;;;23.70;69.60;;;;;;4995504;28;20054;-72
2023/07/10 02:31:38;;;;;;;7.70;4.72;;;23.60;69.90;;;;;;4995155;28;20057;-70
2023/07/10 02:34:05;;;;;;;9.35;4.60;;;23.60;70.30;;;;;;4982957;28;20062;-70
2023/07/10 02:36:34;;;;;;;9.00;5.13;;;23.40;70.70;;;;;;4959840;28;20059;-70
2023/07/10 02:39:01;;;;;;;7.43;4.63;;;23.40;70.80;;;;;;4945036;28;20039;-70
2023/07/10 02:41:29;;;;;;;6.43;4.65;;;23.50;70.70;;;;;;4958312;28;20141;-70
2023/07/10 02:43:56;;;;;;;6.72;4.68;;;23.50;70.60;;;;;;4971323;28;20057;-70
2023/07/10 02:46:24;;;;;;;7.90;4.63;;;23.50;70.50;;;;;;4990885;28;20058;-70
2023/07/10 02:48:51;;;;;;;6.35;4.40;;;23.50;70.30;;;;;;4994295;28;20042;-71
2023/07/10 02:51:18;;;;;;;7.07;4.75;;;23.50;70.20;;;;;;4992803;28;20042;-66
2023/07/10 02:53:45;;;;;;;7.57;4.65;;;23.40;70.70;;;;;;4995706;28;20218;-66
2023/07/10 02:56:12;;;;;;;7.43;4.53;;;23.30;71.00;;;;;;4977782;28;20097;-67
2023/07/10 02:58:38;;;;;;;7.38;4.60;;;23.30;71.20;;;;;;4995077;28;20042;-66
2023/07/10 03:01:05;;;;;;;9.10;5.07;;;23.30;71.20;;;;;;4994396;28;20104;-74
2023/07/10 03:03:34;;;;;;;7.60;4.90;;;23.30;71.00;;;;;;4979290;28;20050;-75
2023/07/10 03:06:03;;;;;;;6.50;4.80;;;23.30;70.60;;;;;;4996342;28;20137;-76
2023/07/10 03:08:31;;;;;;;7.70;4.93;;;23.40;70.30;;;;;;4994568;28;20485;-74
2023/07/10 03:11:02;;;;;;;7.95;5.10;;;23.40;70.40;;;;;;4997792;28;20145;-61
2023/07/10 03:13:29;;;;;;;6.03;4.65;;;23.40;70.40;;;;;;4995163;28;20062;-62
2023/07/10 03:16:04;;;;;;;7.00;4.60;;;23.40;70.20;;;;;;4994393;28;20061;-69
2023/07/10 03:18:31;;;;;;;9.93;4.70;;;23.40;70.20;;;;;;4990533;28;20112;-70
2023/07/10 03:20:59;;;;;;;6.70;4.65;;;23.30;70.70;;;;;;4976436;28;20124;-66
2023/07/10 03:23:26;;;;;;;7.20;4.88;;;23.30;71.00;;;;;;4970670;28;20050;-65
2023/07/10 03:25:56;;;;;;;6.22;4.65;;;23.30;71.00;;;;;;4995897;28;20043;-70
2023/07/10 03:28:23;;;;;;;7.28;4.68;;;23.30;70.70;;;;;;4968745;28;20150;-70
2023/07/10 03:30:50;;;;;;;7.05;4.88;;;23.20;70.90;;;;;;4995017;28;20074;-73
2023/07/10 03:33:21;;;;;;;7.13;4.68;;;23.20;71.00;;;;;;4996840;28;20048;-73
2023/07/10 03:35:48;;;;;;;8.07;5.38;;;23.20;70.80;;;;;;4996433;28;20049;-67
2023/07/10 03:38:20;;;;;;;7.22;4.50;;;23.10;71.00;;;;;;4996391;28;20058;-66
2023/07/10 03:40:51;;;;;;;6.38;4.80;;;23.10;71.30;;;;;;4996683;28;20042;-67
2023/07/10 03:43:18;;;;;;;7.88;5.00;;;23.10;71.20;;;;;;4996789;28;20042;-67
2023/07/10 03:45:48;;;;;;;8.20;5.00;;;23.10;71.10;;;;;;4981266;28;20050;-75
2023/07/10 03:48:15;;;;;;;5.68;4.15;;;23.10;71.10;;;;;;4987442;28;20080;-73
2023/07/10 03:50:49;;;;;;;6.70;5.13;;;23.20;70.90;;;;;;5000799;28;20046;-73
2023/07/10 03:53:18;;;;;;;7.25;4.63;;;23.20;71.00;;;;;;4990008;28;20050;-76
2023/07/10 03:58:36;;;;;;;9.68;5.97;;;23.10;71.70;;;;;;4975539;28;20050;-65
2023/07/10 04:01:04;;;;;;;8.00;5.40;;;23.10;72.30;;;;;;5000010;28;20050;-61
2023/07/10 04:03:33;;;;;;;9.20;5.68;;;23.00;73.40;;;;;;4997655;28;20506;-62
2023/07/10 04:06:07;;;;;;;7.78;4.85;;;22.90;74.20;;;;;;4998137;28;20137;-66
2023/07/10 04:08:40;;;;;;;9.02;6.00;;;22.90;74.70;;;;;;5001912;28;20069;-68
2023/07/10 04:11:13;;;;;;;10.27;5.90;;;22.90;74.90;;;;;;5000524;28;20395;-66
2023/07/10 04:13:43;;;;;;;10.40;5.78;;;22.90;75.00;;;;;;4998302;28;20046;-68
2023/07/10 04:16:13;;;;;;;11.15;6.13;;;23.00;74.80;;;;;;4999005;28;20061;-75
2023/07/10 04:18:41;;;;;;;9.80;6.00;;;22.90;75.60;;;;;;4971021;28;20043;-74
2023/07/10 04:21:11;;;;;;;8.45;5.60;;;22.90;75.80;;;;;;4961046;28;20051;-64
2023/07/10 04:23:39;;;;;;;12.90;6.50;;;22.80;76.20;;;;;;4999406;28;20050;-66
2023/07/10 04:26:07;;;;;;;8.70;5.70;;;22.80;76.20;;;;;;4995543;28;20060;-70
2023/07/10 04:28:33;;;;;;;7.95;5.68;;;22.90;76.60;;;;;;4997337;28;20047;-71
2023/07/10 04:31:00;;;;;;;8.93;6.15;;;22.70;77.10;;;;;;4994494;28;20050;-62
2023/07/10 04:33:27;;;;;;;7.43;5.43;;;22.60;77.30;;;;;;4998880;28;20069;-62
2023/07/10 04:35:55;;;;;;;8.63;5.60;;;22.70;76.90;;;;;;4996296;28;20068;-74
2023/07/10 04:38:24;;;;;;;9.75;5.82;;;22.80;76.40;;;;;;4995907;28;20951;-74
2023/07/10 04:40:57;;;;;;;9.30;6.40;;;22.80;76.30;;;;;;4993278;28;20382;-62
2023/07/10 04:43:26;;;;;;;9.50;5.57;;;22.80;76.60;;;;;;4999253;28;20413;-62
2023/07/10 04:45:54;;;;;;;7.38;5.82;;;22.80;76.50;;;;;;4999353;28;20046;-70
2023/07/10 04:48:22;;;;;;;7.38;5.15;;;22.90;76.20;;;;;;4997498;28;20085;-70
2023/07/10 04:50:50;;;;;;;7.93;5.30;;;22.90;76.20;;;;;;4996537;28;20134;-66
2023/07/10 04:53:21;;;;;;;9.27;5.27;;;22.90;76.30;;;;;;4996168;28;20528;-66
2023/07/10 04:55:49;;;;;;;7.60;5.40;;;22.90;76.60;;;;;;4993882;28;20054;-67
2023/07/10 04:58:18;;;;;;;9.40;5.47;;;22.90;76.60;;;;;;4988690;28;20058;-68
2023/07/10 05:00:51;;;;;;;8.52;5.57;;;23.00;76.60;;;;;;4998682;28;20057;-73
2023/07/10 05:03:18;;;;;;;8.35;5.88;;;22.90;77.10;;;;;;4995685;28;20061;-73
2023/07/10 05:05:52;;;;;;;9.50;5.65;;;22.80;77.40;;;;;;4985144;28;20054;-72
2023/07/10 05:08:21;;;;;;;8.70;5.28;;;22.80;77.40;;;;;;4994976;28;20064;-73
2023/07/10 05:10:50;;;;;;;;;;;22.90;77.40;;;;;;4997704;28;20472;-73
2023/07/10 05:13:19;;;;;;;8.50;5.95;;;22.90;77.40;;;;;;4994147;28;19936;-74
2023/07/10 05:15:47;;;;;;;8.43;5.93;;;22.90;77.80;;;;;;4992976;28;20046;-66
2023/07/10 05:18:33;;;;;;;9.15;6.00;;;22.70;78.50;;;;;;4996083;28;20069;-64
2023/07/10 05:21:01;;;;;;;11.57;6.30;;;22.80;78.60;;;;;;4992528;28;20165;-62
2023/07/10 05:23:28;;;;;;;9.88;6.43;;;22.70;79.00;;;;;;4997168;28;20042;-61
2023/07/10 05:25:59;;;;;;;8.23;5.65;;;22.70;79.10;;;;;;4997327;28;20058;-62
2023/07/10 05:28:28;;;;;;;8.57;6.07;;;22.80;79.40;;;;;;4999385;28;20092;-62
2023/07/10 05:30:57;;;;;;;13.57;6.27;;;22.90;79.20;;;;;;4995569;28;20573;-69
2023/07/10 05:33:25;;;;;;;11.57;6.40;;;22.90;78.60;;;;;;5000214;28;20453;-69
2023/07/10 05:35:53;;;;;;;9.30;5.90;;;23.00;78.30;;;;;;4994220;28;20101;-78
2023/07/10 05:38:21;;;;;;;10.00;6.40;;;23.00;78.00;;;;;;4985720;28;20057;-78
2023/07/10 05:40:48;;;;;;;11.35;6.20;;;23.10;78.20;;;;;;4990721;28;20073;-62
2023/07/10 05:43:15;;;;;;;8.90;7.28;;;23.10;78.30;;;;;;4996734;28;20117;-61
2023/07/10 05:45:43;;;;;;;9.70;7.07;;;23.10;78.60;;;;;;4995809;28;20068;-69
2023/07/10 05:48:11;;;;;;;12.15;8.00;;;23.10;79.10;;;;;;4996605;28;20050;-69
2023/07/10 05:50:38;;;;;;;8.98;6.32;;;23.10;79.00;;;;;;4994363;28;20105;-69
2023/07/10 05:53:06;;;;;;;10.52;7.63;;;23.20;79.30;;;;;;4996211;28;20477;-69
2023/07/10 05:55:32;;;;;;;10.75;8.10;;;23.20;79.00;;;;;;4984467;28;20466;-62
2023/07/10 05:57:59;;;;;;;9.30;7.70;;;23.30;79.20;;;;;;4970620;28;20405;-62
2023/07/10 06:00:27;;;;;;;9.85;7.70;;;23.30;79.20;;;;;;4974329;28;20039;-63
2023/07/10 06:02:56;;;;;;;13.02;9.20;;;23.40;79.00;;;;;;4978343;28;20050;-62
2023/07/10 06:05:25;;;;;;;12.75;9.10;;;23.50;78.50;;;;;;4945751;28;20059;-64
2023/07/10 06:07:52;;;;;;;13.93;9.05;;;23.60;78.90;;;;;;4983238;28;20460;-66
2023/07/10 06:10:19;;;;;;;10.93;9.00;;;23.60;78.50;;;;;;4997410;28;20054;-65
2023/07/10 06:12:48;;;;;;;10.93;8.77;;;23.60;79.00;;;;;;4998025;28;20050;-66
2023/07/10 06:15:15;;;;;;;11.70;9.13;;;23.50;79.20;;;;;;4997550;28;20137;-66
2023/07/10 06:17:42;;;;;;;12.00;9.23;;;23.50;78.80;;;;;;4996555;28;20051;-67
2023/07/10 06:20:11;;;;;;;11.98;8.93;;;23.50;79.20;;;;;;4997450;28;20057;-66
2023/07/10 06:22:38;;;;;;;11.80;9.18;;;23.50;79.10;;;;;;4999352;28;20128;-74
2023/07/10 06:25:05;;;;;;;12.13;9.30;;;23.50;79.40;;;;;;4998887;28;20054;-73
2023/07/10 06:27:32;;;;;;;12.05;9.68;;;23.40;79.50;;;;;;4996789;28;20052;-78
2023/07/10 06:29:59;;;;;;;11.68;9.38;;;23.50;79.40;;;;;;4997003;28;20046;-77
2023/07/10 06:32:26;;;;;;;12.10;10.02;;;23.50;79.80;;;;;;4996384;28;20046;-73
2023/07/10 06:34:53;;;;;;;15.00;11.05;;;23.50;80.00;;;;;;4996674;28;20053;-72
2023/07/10 06:37:21;;;;;;;15.48;10.25;;;23.50;80.10;;;;;;4991475;28;20058;-69
2023/07/10 06:40:04;;;;;;;12.65;10.43;;;23.50;79.90;;;;;;4990035;28;20046;-69
2023/07/10 06:42:31;;;;;;;14.48;12.45;;;23.50;79.70;;;;;;4997577;28;20402;-69
2023/07/10 06:44:58;;;;;;;17.25;12.40;;;23.50;79.60;;;;;;4993849;28;20062;-69
2023/07/10 06:47:25;;;;;;;17.35;14.20;;;23.60;79.70;;;;;;4989887;28;20410;-68
2023/07/10 06:49:52;;;;;;;19.48;14.90;;;23.60;79.10;;;;;;4995179;28;22401;-68
2023/07/10 06:52:19;;;;;;;17.80;15.18;;;23.60;79.70;;;;;;4990341;28;20148;-68
2023/07/10 06:54:47;;;;;;;18.23;15.65;;;23.60;79.70;;;;;;4989531;28;20477;-68
2023/07/10 06:57:14;;;;;;;18.00;16.05;;;23.50;79.60;;;;;;4994040;28;20072;-72
2023/07/10 06:59:41;;;;;;;20.83;17.50;;;23.60;79.50;;;;;;4997461;28;20054;-73
2023/07/10 07:02:09;;;;;;;22.02;17.92;;;23.50;79.20;;;;;;4992694;28;20054;-72
2023/07/10 07:04:36;;;;;;;20.80;18.30;;;23.60;79.00;;;;;;4990040;28;20920;-73
2023/07/10 07:07:03;;;;;;;20.55;18.13;;;23.60;78.70;;;;;;4996395;28;20046;-74
2023/07/10 07:09:30;;;;;;;20.83;18.20;;;23.60;78.80;;;;;;4994256;28;20494;-74
2023/07/10 07:11:58;;;;;;;21.40;18.58;;;23.60;78.60;;;;;;4998155;28;20505;-66
2023/07/10 07:14:25;;;;;;;21.80;18.50;;;23.60;78.80;;;;;;4995154;28;20461;-66
2023/07/10 07:16:53;;;;;;;21.83;18.65;;;23.60;78.90;;;;;;4997032;28;20096;-73
2023/07/10 07:19:20;;;;;;;22.10;19.23;;;23.70;78.70;;;;;;4993917;28;20062;-72
2023/07/10 07:21:47;;;;;;;20.75;18.35;;;23.70;78.80;;;;;;4994723;28;20512;-69
2023/07/10 07:24:14;;;;;;;21.60;18.50;;;23.80;78.10;;;;;;4995811;28;20053;-68
2023/07/10 07:26:41;;;;;;;20.52;18.33;;;23.80;78.40;;;;;;4995826;28;20048;-73
2023/07/10 07:29:10;;;;;;;21.45;18.88;;;23.80;78.70;;;;;;4995407;28;20137;-73
2023/07/10 07:31:39;;;;;;;23.88;20.05;;;23.80;78.70;;;;;;4985684;28;20070;-67
2023/07/10 07:34:06;;;;;;;21.23;18.88;;;23.90;78.50;;;;;;4995557;28;20423;-68
2023/07/10 07:36:34;;;;;;;23.52;19.65;;;23.80;78.20;;;;;;4995103;28;20137;-71
2023/07/10 07:39:03;;;;;;;24.15;18.70;;;23.90;78.30;;;;;;4994065;28;20050;-74
2023/07/10 07:41:31;;;;;;;21.53;19.23;;;23.90;78.20;;;;;;4994331;28;20058;-71
2023/07/10 07:43:58;;;;;;;22.08;19.88;;;24.00;78.10;;;;;;4997416;28;20458;-72
2023/07/10 07:46:27;;;;;;;21.25;19.00;;;24.10;77.80;;;;;;4987812;28;20078;-72
2023/07/10 07:48:54;;;;;;;24.35;20.83;;;24.10;77.30;;;;;;4996841;28;20485;-73
2023/07/10 07:51:21;;;;;;;23.27;19.73;;;24.20;77.10;;;;;;4994080;28;20050;-75
2023/07/10 07:53:48;;;;;;;22.45;20.05;;;24.20;75.90;;;;;;4998149;28;20062;-74
2023/07/10 07:56:14;;;;;;;26.98;20.83;;;24.40;76.80;;;;;;4997367;28;20057;-68
2023/07/10 07:58:41;;;;;;;23.27;20.80;;;24.40;76.60;;;;;;4989933;28;20208;-68
2023/07/10 08:01:09;;;;;;;22.55;20.15;;;24.50;75.90;;;;;;4996265;28;20050;-74
2023/07/10 08:03:38;;;;;;;21.60;19.33;;;24.70;75.40;;;;;;4996700;28;20049;-73
2023/07/10 08:06:04;;;;;;;23.63;19.85;;;24.90;75.30;;;;;;4997053;28;20054;-73
2023/07/10 08:08:31;;;;;;;22.13;19.40;;;25.00;75.30;;;;;;4993523;28;20073;-73
2023/07/10 08:10:58;;;;;;;22.33;19.83;;;25.10;74.20;;;;;;4996295;28;20464;-73
2023/07/10 08:13:25;;;;;;;22.15;19.75;;;25.30;73.90;;;;;;4996090;28;20065;-73
2023/07/10 08:15:52;;;;;;;21.85;19.55;;;25.40;73.20;;;;;;4997311;28;20042;-73
2023/07/10 08:18:19;;;;;;;20.95;18.45;;;25.50;72.40;;;;;;4996437;28;20066;-74
2023/07/10 08:20:47;;;;;;;21.10;18.02;;;25.70;71.60;;;;;;4996025;28;20486;-62
2023/07/10 08:23:14;;;;;;;20.77;17.45;;;25.90;71.00;;;;;;4998243;28;20050;-62
2023/07/10 08:25:41;;;;;;;20.45;18.25;;;26.00;70.60;;;;;;4997148;28;20106;-61
2023/07/10 08:28:08;;;;;;;19.67;17.40;;;26.00;70.40;;;;;;4995035;28;20065;-61
2023/07/10 08:30:35;;;;;;;19.10;17.05;;;26.00;69.80;;;;;;4995749;28;20046;-73
2023/07/10 08:33:02;;;;;;;20.73;18.02;;;26.20;69.30;;;;;;4996222;28;20049;-72
2023/07/10 08:35:29;;;;;;;19.30;17.17;;;26.30;69.00;;;;;;4999144;28;20201;-73
2023/07/10 08:37:57;;;;;;;20.75;17.95;;;26.30;68.80;;;;;;4997488;28;20104;-73
2023/07/10 08:40:30;;;;;;;19.00;17.00;;;26.30;68.20;;;;;;5000066;28;20058;-75
2023/07/10 08:42:59;;;;;;;19.45;17.38;;;26.40;68.30;;;;;;5002761;28;20050;-76
2023/07/10 08:45:34;;;;;;;18.42;16.55;;;26.60;67.70;;;;;;5000003;28;20072;-69
2023/07/10 08:48:08;;;;;;;19.00;17.00;;;26.80;67.60;;;;;;4998451;28;20054;-68
2023/07/10 08:50:38;;;;;;;19.17;16.50;;;26.80;67.20;;;;;;4999387;28;20054;-67
2023/07/10 08:53:11;;;;;;;20.08;16.83;;;26.80;67.10;;;;;;4996617;28;20050;-67
2023/07/10 08:55:52;;;;;;;17.80;16.00;;;26.70;67.10;;;;;;4989929;28;20521;-76
2023/07/10 08:58:22;;;;;;;18.08;16.27;;;26.60;67.20;;;;;;4997586;28;20061;-76
2023/07/10 09:00:52;;;;;;;16.75;15.05;;;26.50;67.40;;;;;;5000429;28;20459;-67
2023/07/10 09:03:32;;;;;;;17.15;15.35;;;26.50;67.50;;;;;;4999143;28;20063;-67
2023/07/10 09:05:59;;;;;;;17.60;15.80;;;26.50;67.70;;;;;;5001788;28;20477;-69
2023/07/10 09:08:30;;;;;;;17.38;15.57;;;26.70;67.30;;;;;;4999097;28;20046;-70
2023/07/10 09:11:01;;;;;;;16.52;14.82;;;26.70;67.30;;;;;;4992530;28;20053;-67
2023/07/10 09:13:35;;;;;;;17.15;15.18;;;26.80;66.80;;;;;;5000137;28;20053;-68
2023/07/10 09:16:09;;;;;;;18.85;16.48;;;27.10;66.60;;;;;;5001204;28;20062;-77
2023/07/10 09:18:41;;;;;;;21.05;18.85;;;27.20;66.30;;;;;;4998618;28;20046;-77
2023/07/10 09:21:17;;;;;;;35.65;31.95;;;27.50;65.70;;;;;;5002080;28;20054;-60
2023/07/10 09:23:49;;;;;;;34.28;30.58;;;27.60;65.40;;;;;;4993311;28;20050;-65
2023/07/10 09:26:18;;;;;;;38.78;34.83;;;27.60;65.20;;;;;;4998866;28;20053;-69
2023/07/10 09:28:57;;;;;;;30.52;27.20;;;27.60;65.10;;;;;;4998346;28;20053;-69
2023/07/10 09:31:43;;;;;;;32.15;28.95;;;27.60;65.30;;;;;;4995853;28;20042;-66
2023/07/10 09:36:54;;;;;;;23.30;20.90;;;28.00;64.00;;;;;;4976226;28;20158;-69
2023/07/10 09:39:27;;;;;;;22.50;20.20;;;28.10;63.00;;;;;;4977932;28;20062;-68
2023/07/10 09:41:54;;;;;;;23.38;20.85;;;28.10;63.20;;;;;;5000969;28;20057;-76
2023/07/10 09:44:23;;;;;;;22.50;19.33;;;28.20;62.70;;;;;;4985761;28;20528;-76
2023/07/10 09:46:50;;;;;;;;;;;28.10;62.70;;;;;;5000627;28;20053;-67
2023/07/10 09:49:19;;;;;;;16.60;14.90;;;28.20;62.00;;;;;;4999918;28;19929;-68
2023/07/10 09:51:56;;;;;;;16.92;15.20;;;28.30;61.20;;;;;;4996391;28;20119;-60
2023/07/10 09:54:25;;;;;;;17.35;15.60;;;28.30;61.40;;;;;;4999571;28;20124;-62
2023/07/10 09:56:54;;;;;;;16.95;15.23;;;28.50;61.00;;;;;;4999023;28;20512;-68
2023/07/10 09:59:23;;;;;;;20.38;18.35;;;28.70;60.90;;;;;;4998519;28;20493;-67
2023/07/10 10:01:51;;;;;;;20.05;17.95;;;28.80;60.60;;;;;;4998031;28;20090;-68
2023/07/10 10:04:22;;;;;;;22.15;18.75;;;29.00;60.00;;;;;;5000453;28;20117;-67
2023/07/10 10:07:02;;;;;;;19.23;17.33;;;29.10;59.40;;;;;;5000118;28;20078;-62
2023/07/10 10:09:31;;;;;;;20.08;17.92;;;29.00;59.50;;;;;;4970065;28;20058;-61
2023/07/10 10:12:13;;;;;;;18.25;16.35;;;28.90;59.90;;;;;;4987016;28;20420;-61
2023/07/10 10:14:45;;;;;;;18.88;16.60;;;29.00;59.60;;;;;;4996026;28;20073;-63
2023/07/10 10:17:15;;;;;;;19.10;17.15;;;29.10;59.00;;;;;;5000791;28;20053;-73
2023/07/10 10:19:45;;;;;;;18.42;16.55;;;29.10;58.90;;;;;;4998990;28;20053;-74
2023/07/10 10:22:13;;;;;;;17.80;15.77;;;29.10;58.90;;;;;;5000556;28;20054;-73
2023/07/10 10:24:41;;;;;;;17.92;15.15;;;28.90;58.10;;;;;;4982868;28;20046;-73
2023/07/10 10:27:29;;;;;;;17.65;15.30;;;28.90;58.20;;;;;;4998589;28;20046;-67
2023/07/10 10:30:08;;;;;;;16.10;14.38;;;29.00;58.10;;;;;;4971550;28;20146;-67
2023/07/10 10:32:41;;;;;;;16.00;14.43;;;29.00;57.90;;;;;;4969586;28;20419;-72
2023/07/10 10:35:17;;;;;;;17.52;15.73;;;28.90;58.10;;;;;;4983695;28;20062;-72
2023/07/10 10:37:56;;;;;;;17.05;15.25;;;28.90;58.30;;;;;;4980737;28;20043;-69
2023/07/10 10:40:35;;;;;;;17.85;14.77;;;28.80;58.40;;;;;;4995403;28;20054;-69
2023/07/10 10:43:20;;;;;;;15.20;13.60;;;28.80;58.40;;;;;;4995411;28;20056;-69
2023/07/10 10:45:52;;;;;;;15.45;13.85;;;28.70;58.50;;;;;;4998905;28;20042;-69
2023/07/10 10:48:27;;;;;;;15.25;13.23;;;28.60;58.50;;;;;;4998482;28;20054;-69
2023/07/10 10:51:04;;;;;;;14.70;13.15;;;28.90;58.50;;;;;;4993910;28;20050;-70
2023/07/10 10:53:41;;;;;;;13.07;11.77;;;29.00;58.00;;;;;;4996539;28;20088;-68
2023/07/10 10:56:20;;;;;;;12.98;11.43;;;29.10;57.80;;;;;;4998685;28;20490;-73
2023/07/10 10:58:55;;;;;;;13.32;11.98;;;29.20;57.20;;;;;;4985333;28;20050;-74
2023/07/10 11:01:35;;;;;;;13.75;11.48;;;29.20;56.30;;;;;;4997071;28;20057;-66
2023/07/10 11:04:16;;;;;;;12.85;11.65;;;28.90;56.90;;;;;;4998421;28;20108;-65
2023/07/10 11:06:54;;;;;;;13.02;11.63;;;28.70;57.40;;;;;;4998087;28;20801;-67
2023/07/10 11:09:25;;;;;;;13.32;11.10;;;28.70;57.30;;;;;;4995709;28;20145;-68
2023/07/10 11:11:55;;;;;;;13.57;11.70;;;29.10;57.10;;;;;;4999676;28;20133;-66
2023/07/10 11:14:22;;;;;;;13.82;11.25;;;29.40;56.70;;;;;;4997552;28;20065;-65
2023/07/10 11:16:50;;;;;;;12.57;11.15;;;29.50;56.30;;;;;;4998333;28;20050;-77
2023/07/10 11:19:22;;;;;;;11.57;10.38;;;29.50;56.00;;;;;;4998177;28;20054;-74
2023/07/10 11:21:52;;;;;;;11.40;9.95;;;29.50;55.70;;;;;;4999263;28;20090;-68
2023/07/10 11:24:31;;;;;;;11.38;10.02;;;29.60;55.50;;;;;;4998897;28;20163;-67
2023/07/10 11:27:12;;;;;;;13.38;10.38;;;29.80;54.90;;;;;;4998004;28;20053;-67
2023/07/10 11:29:42;;;;;;;13.52;9.95;;;29.80;54.70;;;;;;4971957;28;20055;-66
2023/07/10 11:32:16;;;;;;;10.95;9.57;;;29.70;53.40;;;;;;4976924;28;20116;-67
2023/07/10 11:34:55;;;;;;;10.70;9.48;;;29.60;53.70;;;;;;4976728;28;20042;-67
2023/07/10 11:37:40;;;;;;;11.02;9.52;;;29.60;54.20;;;;;;4977409;28;20057;-68
2023/07/10 11:40:44;;;;;;;11.63;9.20;;;29.50;54.00;;;;;;4994046;28;20054;-67
2023/07/10 11:43:54;;;;;;;11.05;8.85;;;29.40;53.30;;;;;;4980896;28;20054;-66
2023/07/10 11:46:32;;;;;;;11.07;9.25;;;29.50;53.50;;;;;;4991631;28;20051;-68
2023/07/10 11:49:18;;;;;;;11.68;8.98;;;29.70;52.70;;;;;;4999167;28;20057;-67
2023/07/10 11:52:25;;;;;;;10.45;9.25;;;29.80;52.90;;;;;;4996483;28;20394;-69
2023/07/10 11:55:25;;;;;;;10.27;8.93;;;29.60;53.00;;;;;;4995927;28;20580;-70
2023/07/10 11:58:11;;;;;;;10.68;9.05;;;29.50;53.60;;;;;;4983160;28;20461;-67
2023/07/10 12:00:38;;;;;;;11.25;9.48;;;29.60;53.70;;;;;;4984720;28;20061;-66
2023/07/10 12:03:12;;;;;;;9.80;8.52;;;29.60;53.30;;;;;;4998318;28;20533;-68
2023/07/10 12:05:39;;;;;;;10.60;9.48;;;29.70;52.30;;;;;;4980235;28;20034;-67
2023/07/10 12:08:13;;;;;;;10.98;9.43;;;29.90;51.90;;;;;;4980398;28;20165;-68
2023/07/10 12:10:42;;;;;;;10.50;8.77;;;30.10;51.80;;;;;;4991487;28;20420;-67
2023/07/10 12:13:15;;;;;;;;;;;30.10;51.50;;;;;;5003699;28;20046;-66
2023/07/10 12:15:42;;;;;;;11.02;8.23;;;30.20;50.60;;;;;;4982133;28;19972;-66
2023/07/10 12:18:10;;;;;;;10.70;8.80;;;30.20;50.60;;;;;;4982125;28;20054;-66
2023/07/10 12:20:37;;;;;;;10.18;9.07;;;30.30;50.80;;;;;;5001199;28;20129;-67
2023/07/10 12:23:06;;;;;;;9.43;8.43;;;30.30;51.30;;;;;;5000677;28;20061;-67
2023/07/10 12:25:35;;;;;;;10.43;8.75;;;30.10;51.70;;;;;;5000090;28;20478;-67
2023/07/10 12:28:03;;;;;;;11.05;8.98;;;30.00;51.00;;;;;;4985733;28;20046;-67
2023/07/10 12:30:31;;;;;;;10.35;8.50;;;29.80;51.40;;;;;;4998562;28;20143;-67
2023/07/10 12:32:58;;;;;;;11.07;8.77;;;29.90;51.10;;;;;;5001169;28;20468;-66
2023/07/10 12:35:30;;;;;;;9.95;8.27;;;29.90;51.40;;;;;;4998889;28;20057;-67
2023/07/10 12:38:00;;;;;;;9.48;8.52;;;29.90;50.40;;;;;;4999778;28;20058;-66
2023/07/10 12:40:28;;;;;;;9.27;8.23;;;29.90;50.20;;;;;;5001487;28;20061;-67
2023/07/10 12:42:57;;;;;;;10.20;8.50;;;29.80;49.50;;;;;;5001497;28;20100;-75
2023/07/10 12:45:33;;;;;;;9.38;7.63;;;29.80;49.80;;;;;;5001766;28;20054;-74
2023/07/10 12:48:14;;;;;;;10.52;8.13;;;29.60;50.10;;;;;;5001614;28;20089;-72
2023/07/10 12:50:46;;;;;;;9.85;8.25;;;29.60;50.40;;;;;;4999520;28;20056;-67
2023/07/10 12:53:20;;;;;;;10.25;7.93;;;29.60;49.90;;;;;;4996954;28;20046;-67
2023/07/10 12:55:49;;;;;;;9.90;7.88;;;29.50;49.90;;;;;;4999959;28;20136;-67
2023/07/10 12:58:17;;;;;;;10.40;8.40;;;29.50;49.20;;;;;;4997298;28;20050;-66
2023/07/10 13:00:57;;;;;;;12.82;8.10;;;29.60;49.50;;;;;;4990667;28;20046;-68